sensor_id;sensor_type;location;lat;lon;timestamp;P1;durP1;ratioP1;P2;durP2;ratioP2
5929;SDS011;2990;48.746;9.236;2024-03-06T00:02:19;0.30;;;0.30;;
5929;SDS011;2990;48.746;9.236;2024-03-06T00:04:44;0.30;;;0.30;;
5929;SDS011;2990;48.746;9.236;2024-03-06T00:07:10;0.20;;;0.20;;
5929;SDS011;2990;48.746;9.236;2024-03-06T00:09:35;0.35;;;0.35;;
5929;SDS011;2990;48.746;9.236;2024-03-06T00:12:01;0.98;;;0.30;;
5929;SDS011;2990;48.746;9.236;2024-03-06T00:14:27;0.30;;;0.30;;
5929;SDS011;2990;48.746;9.236;2024-03-06T00:16:53;0.30;;;0.30;;
5929;SDS011;2990;48.746;9.236;2024-03-06T00:19:20;3.10;;;0.45;;
5929;SDS011;2990;48.746;9.236;2024-03-06T00:21:46;0.57;;;0.30;;
5929;SDS011;2990;48.746;9.236;2024-03-06T00:24:12;0.40;;;0.40;;
5929;SDS011;2990;48.746;9.236;2024-03-06T00:26:44;0.40;;;0.40;;
5929;SDS011;2990;48.746;9.236;2024-03-06T00:29:10;0.20;;;0.20;;
5929;SDS011;2990;48.746;9.236;2024-03-06T00:31:36;0.40;;;0.40;;
5929;SDS011;2990;48.746;9.236;2024-03-06T00:34:07;0.35;;;0.35;;
5929;SDS011;2990;48.746;9.236;2024-03-06T00:36:32;0.63;;;0.30;;
5929;SDS011;2990;48.746;9.236;2024-03-06T00:38:58;0.50;;;0.50;;
5929;SDS011;2990;48.746;9.236;2024-03-06T00:41:24;0.35;;;0.35;;
5929;SDS011;2990;48.746;9.236;2024-03-06T00:43:49;0.55;;;0.30;;
5929;SDS011;2990;48.746;9.236;2024-03-06T00:46:15;0.30;;;0.30;;
5929;SDS011;2990;48.746;9.236;2024-03-06T00:48:40;0.45;;;0.30;;
5929;SDS011;2990;48.746;9.236;2024-03-06T00:51:07;0.50;;;0.50;;
5929;SDS011;2990;48.746;9.236;2024-03-06T00:53:32;2.55;;;0.30;;
5929;SDS011;2990;48.746;9.236;2024-03-06T00:55:59;2.47;;;0.32;;
5929;SDS011;2990;48.746;9.236;2024-03-06T00:58:25;0.25;;;0.25;;
5929;SDS011;2990;48.746;9.236;2024-03-06T01:00:51;0.30;;;0.30;;
5929;SDS011;2990;48.746;9.236;2024-03-06T01:03:17;0.85;;;0.30;;
5929;SDS011;2990;48.746;9.236;2024-03-06T01:05:42;0.50;;;0.50;;
5929;SDS011;2990;48.746;9.236;2024-03-06T01:08:08;0.50;;;0.50;;
5929;SDS011;2990;48.746;9.236;2024-03-06T01:10:33;0.65;;;0.40;;
5929;SDS011;2990;48.746;9.236;2024-03-06T01:12:59;2.75;;;0.40;;
5929;SDS011;2990;48.746;9.236;2024-03-06T01:15:24;0.30;;;0.30;;
5929;SDS011;2990;48.746;9.236;2024-03-06T01:17:50;0.32;;;0.32;;
5929;SDS011;2990;48.746;9.236;2024-03-06T01:20:15;0.40;;;0.40;;
5929;SDS011;2990;48.746;9.236;2024-03-06T01:22:41;0.47;;;0.47;;
5929;SDS011;2990;48.746;9.236;2024-03-06T01:25:06;0.35;;;0.35;;
5929;SDS011;2990;48.746;9.236;2024-03-06T01:27:32;0.50;;;0.50;;
5929;SDS011;2990;48.746;9.236;2024-03-06T01:29:58;0.40;;;0.40;;
5929;SDS011;2990;48.746;9.236;2024-03-06T01:32:23;0.50;;;0.50;;
5929;SDS011;2990;48.746;9.236;2024-03-06T01:34:49;3.53;;;0.30;;
5929;SDS011;2990;48.746;9.236;2024-03-06T01:37:15;0.43;;;0.35;;
5929;SDS011;2990;48.746;9.236;2024-03-06T01:39:40;0.30;;;0.30;;
5929;SDS011;2990;48.746;9.236;2024-03-06T01:42:06;0.30;;;0.30;;
5929;SDS011;2990;48.746;9.236;2024-03-06T01:44:31;0.55;;;0.55;;
5929;SDS011;2990;48.746;9.236;2024-03-06T01:46:57;0.50;;;0.50;;
5929;SDS011;2990;48.746;9.236;2024-03-06T01:49:23;0.28;;;0.28;;
5929;SDS011;2990;48.746;9.236;2024-03-06T01:51:51;0.28;;;0.28;;
5929;SDS011;2990;48.746;9.236;2024-03-06T01:54:18;0.50;;;0.50;;
5929;SDS011;2990;48.746;9.236;2024-03-06T01:56:45;0.50;;;0.50;;
5929;SDS011;2990;48.746;9.236;2024-03-06T01:59:11;0.45;;;0.45;;
5929;SDS011;2990;48.746;9.236;2024-03-06T02:01:38;0.30;;;0.30;;
5929;SDS011;2990;48.746;9.236;2024-03-06T02:04:05;0.52;;;0.50;;
5929;SDS011;2990;48.746;9.236;2024-03-06T02:06:34;0.40;;;0.40;;
5929;SDS011;2990;48.746;9.236;2024-03-06T02:09:00;0.35;;;0.35;;
5929;SDS011;2990;48.746;9.236;2024-03-06T02:11:26;0.50;;;0.50;;
5929;SDS011;2990;48.746;9.236;2024-03-06T02:13:51;0.40;;;0.40;;
5929;SDS011;2990;48.746;9.236;2024-03-06T02:16:17;0.40;;;0.40;;
5929;SDS011;2990;48.746;9.236;2024-03-06T02:18:55;0.50;;;0.50;;
5929;SDS011;2990;48.746;9.236;2024-03-06T02:21:24;0.50;;;0.50;;
5929;SDS011;2990;48.746;9.236;2024-03-06T02:23:50;1.15;;;0.57;;
5929;SDS011;2990;48.746;9.236;2024-03-06T02:26:20;0.95;;;0.95;;
5929;SDS011;2990;48.746;9.236;2024-03-06T02:28:50;0.60;;;0.60;;
5929;SDS011;2990;48.746;9.236;2024-03-06T02:31:17;1.40;;;0.70;;
5929;SDS011;2990;48.746;9.236;2024-03-06T02:33:44;1.13;;;1.13;;
5929;SDS011;2990;48.746;9.236;2024-03-06T02:36:12;1.73;;;1.73;;
5929;SDS011;2990;48.746;9.236;2024-03-06T02:38:38;5.07;;;1.48;;
5929;SDS011;2990;48.746;9.236;2024-03-06T02:41:04;1.95;;;1.85;;
5929;SDS011;2990;48.746;9.236;2024-03-06T02:43:31;1.67;;;1.63;;
5929;SDS011;2990;48.746;9.236;2024-03-06T02:45:57;2.58;;;2.38;;
5929;SDS011;2990;48.746;9.236;2024-03-06T02:48:23;2.95;;;2.25;;
5929;SDS011;2990;48.746;9.236;2024-03-06T02:50:48;2.50;;;2.35;;
5929;SDS011;2990;48.746;9.236;2024-03-06T02:53:14;2.67;;;2.40;;
5929;SDS011;2990;48.746;9.236;2024-03-06T02:55:39;3.00;;;1.83;;
5929;SDS011;2990;48.746;9.236;2024-03-06T02:58:05;2.45;;;2.25;;
5929;SDS011;2990;48.746;9.236;2024-03-06T03:00:30;1.88;;;1.75;;
5929;SDS011;2990;48.746;9.236;2024-03-06T03:02:56;2.80;;;1.98;;
5929;SDS011;2990;48.746;9.236;2024-03-06T03:05:22;1.98;;;1.88;;
5929;SDS011;2990;48.746;9.236;2024-03-06T03:07:48;1.55;;;1.55;;
5929;SDS011;2990;48.746;9.236;2024-03-06T03:10:14;1.50;;;1.40;;
5929;SDS011;2990;48.746;9.236;2024-03-06T03:12:40;1.88;;;1.42;;
5929;SDS011;2990;48.746;9.236;2024-03-06T03:15:06;1.90;;;1.80;;
5929;SDS011;2990;48.746;9.236;2024-03-06T03:17:32;1.40;;;1.30;;
5929;SDS011;2990;48.746;9.236;2024-03-06T03:19:58;3.45;;;1.23;;
5929;SDS011;2990;48.746;9.236;2024-03-06T03:22:24;1.05;;;1.00;;
5929;SDS011;2990;48.746;9.236;2024-03-06T03:24:50;1.20;;;1.20;;
5929;SDS011;2990;48.746;9.236;2024-03-06T03:27:16;1.83;;;1.73;;
5929;SDS011;2990;48.746;9.236;2024-03-06T03:29:41;1.13;;;1.13;;
5929;SDS011;2990;48.746;9.236;2024-03-06T03:32:07;0.85;;;0.85;;
5929;SDS011;2990;48.746;9.236;2024-03-06T03:34:35;1.23;;;1.23;;
5929;SDS011;2990;48.746;9.236;2024-03-06T03:37:01;4.50;;;1.20;;
5929;SDS011;2990;48.746;9.236;2024-03-06T03:39:27;1.77;;;0.93;;
5929;SDS011;2990;48.746;9.236;2024-03-06T03:41:52;0.98;;;0.98;;
5929;SDS011;2990;48.746;9.236;2024-03-06T03:44:18;1.15;;;1.05;;
5929;SDS011;2990;48.746;9.236;2024-03-06T03:46:44;1.00;;;1.00;;
5929;SDS011;2990;48.746;9.236;2024-03-06T03:49:10;2.17;;;1.20;;
5929;SDS011;2990;48.746;9.236;2024-03-06T03:51:40;1.10;;;1.10;;
5929;SDS011;2990;48.746;9.236;2024-03-06T03:54:05;1.23;;;1.23;;
5929;SDS011;2990;48.746;9.236;2024-03-06T03:56:31;0.82;;;0.82;;
5929;SDS011;2990;48.746;9.236;2024-03-06T03:58:57;1.38;;;1.17;;
5929;SDS011;2990;48.746;9.236;2024-03-06T04:01:23;0.80;;;0.80;;
5929;SDS011;2990;48.746;9.236;2024-03-06T04:03:50;0.90;;;0.90;;
5929;SDS011;2990;48.746;9.236;2024-03-06T04:06:16;0.80;;;0.80;;
5929;SDS011;2990;48.746;9.236;2024-03-06T04:08:42;1.00;;;1.00;;
5929;SDS011;2990;48.746;9.236;2024-03-06T04:11:08;3.22;;;1.05;;
5929;SDS011;2990;48.746;9.236;2024-03-06T04:13:36;1.10;;;1.10;;
5929;SDS011;2990;48.746;9.236;2024-03-06T04:16:03;1.02;;;1.02;;
5929;SDS011;2990;48.746;9.236;2024-03-06T04:18:30;0.93;;;0.93;;
5929;SDS011;2990;48.746;9.236;2024-03-06T04:21:06;1.02;;;1.02;;
5929;SDS011;2990;48.746;9.236;2024-03-06T04:23:32;0.85;;;0.85;;
5929;SDS011;2990;48.746;9.236;2024-03-06T04:26:01;1.40;;;1.17;;
5929;SDS011;2990;48.746;9.236;2024-03-06T04:28:27;1.17;;;1.13;;
5929;SDS011;2990;48.746;9.236;2024-03-06T04:30:53;1.40;;;1.40;;
5929;SDS011;2990;48.746;9.236;2024-03-06T04:33:18;1.95;;;1.10;;
5929;SDS011;2990;48.746;9.236;2024-03-06T04:35:45;0.80;;;0.80;;
5929;SDS011;2990;48.746;9.236;2024-03-06T04:38:10;1.20;;;1.20;;
5929;SDS011;2990;48.746;9.236;2024-03-06T04:40:36;1.00;;;1.00;;
5929;SDS011;2990;48.746;9.236;2024-03-06T04:43:01;2.38;;;0.75;;
5929;SDS011;2990;48.746;9.236;2024-03-06T04:45:27;0.80;;;0.80;;
5929;SDS011;2990;48.746;9.236;2024-03-06T04:47:55;0.52;;;0.52;;
5929;SDS011;2990;48.746;9.236;2024-03-06T04:50:21;0.77;;;0.77;;
5929;SDS011;2990;48.746;9.236;2024-03-06T04:52:46;2.80;;;1.23;;
5929;SDS011;2990;48.746;9.236;2024-03-06T04:55:12;0.70;;;0.70;;
5929;SDS011;2990;48.746;9.236;2024-03-06T04:57:40;1.20;;;1.20;;
5929;SDS011;2990;48.746;9.236;2024-03-06T05:00:08;0.60;;;0.60;;
5929;SDS011;2990;48.746;9.236;2024-03-06T05:02:35;1.55;;;0.98;;
5929;SDS011;2990;48.746;9.236;2024-03-06T05:05:02;1.33;;;1.30;;
5929;SDS011;2990;48.746;9.236;2024-03-06T05:07:28;0.88;;;0.88;;
5929;SDS011;2990;48.746;9.236;2024-03-06T05:09:55;1.00;;;0.95;;
5929;SDS011;2990;48.746;9.236;2024-03-06T05:12:22;0.60;;;0.60;;
5929;SDS011;2990;48.746;9.236;2024-03-06T05:14:48;1.00;;;1.00;;
5929;SDS011;2990;48.746;9.236;2024-03-06T05:17:13;1.70;;;0.80;;
5929;SDS011;2990;48.746;9.236;2024-03-06T05:19:39;1.35;;;1.25;;
5929;SDS011;2990;48.746;9.236;2024-03-06T05:22:04;0.82;;;0.82;;
5929;SDS011;2990;48.746;9.236;2024-03-06T05:24:30;1.00;;;1.00;;
5929;SDS011;2990;48.746;9.236;2024-03-06T05:26:56;1.65;;;0.80;;
5929;SDS011;2990;48.746;9.236;2024-03-06T05:29:21;1.02;;;1.02;;
5929;SDS011;2990;48.746;9.236;2024-03-06T05:31:47;0.95;;;0.95;;
5929;SDS011;2990;48.746;9.236;2024-03-06T05:34:12;0.80;;;0.80;;
5929;SDS011;2990;48.746;9.236;2024-03-06T05:36:38;0.75;;;0.75;;
5929;SDS011;2990;48.746;9.236;2024-03-06T05:39:03;1.05;;;0.98;;
5929;SDS011;2990;48.746;9.236;2024-03-06T05:41:37;0.90;;;0.90;;
5929;SDS011;2990;48.746;9.236;2024-03-06T05:44:03;0.90;;;0.90;;
5929;SDS011;2990;48.746;9.236;2024-03-06T05:46:29;1.13;;;1.10;;
5929;SDS011;2990;48.746;9.236;2024-03-06T05:48:54;0.85;;;0.85;;
5929;SDS011;2990;48.746;9.236;2024-03-06T05:51:20;0.93;;;0.93;;
5929;SDS011;2990;48.746;9.236;2024-03-06T05:53:45;1.42;;;1.40;;
5929;SDS011;2990;48.746;9.236;2024-03-06T05:56:11;1.25;;;1.25;;
5929;SDS011;2990;48.746;9.236;2024-03-06T05:58:36;1.20;;;1.20;;
5929;SDS011;2990;48.746;9.236;2024-03-06T06:01:02;0.90;;;0.90;;
5929;SDS011;2990;48.746;9.236;2024-03-06T06:03:28;0.68;;;0.68;;
5929;SDS011;2990;48.746;9.236;2024-03-06T06:05:54;1.13;;;1.13;;
5929;SDS011;2990;48.746;9.236;2024-03-06T06:08:20;1.35;;;1.35;;
5929;SDS011;2990;48.746;9.236;2024-03-06T06:10:46;0.80;;;0.80;;
5929;SDS011;2990;48.746;9.236;2024-03-06T06:13:11;1.05;;;0.95;;
5929;SDS011;2990;48.746;9.236;2024-03-06T06:15:37;1.05;;;1.05;;
5929;SDS011;2990;48.746;9.236;2024-03-06T06:18:03;0.82;;;0.82;;
5929;SDS011;2990;48.746;9.236;2024-03-06T06:20:29;0.77;;;0.77;;
5929;SDS011;2990;48.746;9.236;2024-03-06T06:22:55;1.08;;;1.08;;
5929;SDS011;2990;48.746;9.236;2024-03-06T06:25:21;1.00;;;1.00;;
5929;SDS011;2990;48.746;9.236;2024-03-06T06:27:47;1.10;;;1.10;;
5929;SDS011;2990;48.746;9.236;2024-03-06T06:30:14;0.80;;;0.80;;
5929;SDS011;2990;48.746;9.236;2024-03-06T06:32:40;0.82;;;0.82;;
5929;SDS011;2990;48.746;9.236;2024-03-06T06:35:06;0.70;;;0.70;;
5929;SDS011;2990;48.746;9.236;2024-03-06T06:37:34;2.35;;;1.30;;
5929;SDS011;2990;48.746;9.236;2024-03-06T06:39:59;1.08;;;1.08;;
5929;SDS011;2990;48.746;9.236;2024-03-06T06:42:27;0.88;;;0.70;;
5929;SDS011;2990;48.746;9.236;2024-03-06T06:44:53;1.50;;;1.40;;
5929;SDS011;2990;48.746;9.236;2024-03-06T06:47:18;2.67;;;0.98;;
5929;SDS011;2990;48.746;9.236;2024-03-06T06:49:44;1.33;;;1.25;;
5929;SDS011;2990;48.746;9.236;2024-03-06T06:52:09;1.13;;;1.10;;
5929;SDS011;2990;48.746;9.236;2024-03-06T06:54:35;2.83;;;1.40;;
5929;SDS011;2990;48.746;9.236;2024-03-06T06:57:01;0.88;;;0.88;;
5929;SDS011;2990;48.746;9.236;2024-03-06T06:59:28;2.25;;;1.02;;
5929;SDS011;2990;48.746;9.236;2024-03-06T07:01:53;1.48;;;0.95;;
5929;SDS011;2990;48.746;9.236;2024-03-06T07:04:19;1.27;;;1.10;;
5929;SDS011;2990;48.746;9.236;2024-03-06T07:06:45;0.95;;;0.95;;
5929;SDS011;2990;48.746;9.236;2024-03-06T07:09:11;1.30;;;1.30;;
5929;SDS011;2990;48.746;9.236;2024-03-06T07:11:37;1.55;;;1.45;;
5929;SDS011;2990;48.746;9.236;2024-03-06T07:14:03;0.85;;;0.85;;
5929;SDS011;2990;48.746;9.236;2024-03-06T07:16:28;1.55;;;1.45;;
5929;SDS011;2990;48.746;9.236;2024-03-06T07:18:53;1.52;;;1.42;;
5929;SDS011;2990;48.746;9.236;2024-03-06T07:21:19;1.27;;;1.25;;
5929;SDS011;2990;48.746;9.236;2024-03-06T07:23:44;1.08;;;1.08;;
5929;SDS011;2990;48.746;9.236;2024-03-06T07:26:10;1.15;;;1.15;;
5929;SDS011;2990;48.746;9.236;2024-03-06T07:28:35;1.40;;;1.40;;
5929;SDS011;2990;48.746;9.236;2024-03-06T07:31:02;1.85;;;1.48;;
5929;SDS011;2990;48.746;9.236;2024-03-06T07:33:28;1.55;;;1.45;;
5929;SDS011;2990;48.746;9.236;2024-03-06T07:35:54;1.17;;;1.17;;
5929;SDS011;2990;48.746;9.236;2024-03-06T07:38:19;1.40;;;1.30;;
5929;SDS011;2990;48.746;9.236;2024-03-06T07:40:45;1.30;;;1.30;;
5929;SDS011;2990;48.746;9.236;2024-03-06T07:43:11;1.67;;;1.63;;
5929;SDS011;2990;48.746;9.236;2024-03-06T07:45:37;1.42;;;1.42;;
5929;SDS011;2990;48.746;9.236;2024-03-06T07:48:02;1.80;;;1.70;;
5929;SDS011;2990;48.746;9.236;2024-03-06T07:50:28;1.02;;;1.02;;
5929;SDS011;2990;48.746;9.236;2024-03-06T07:52:54;1.42;;;1.42;;
5929;SDS011;2990;48.746;9.236;2024-03-06T07:55:20;1.33;;;1.33;;
5929;SDS011;2990;48.746;9.236;2024-03-06T07:57:46;1.30;;;1.30;;
5929;SDS011;2990;48.746;9.236;2024-03-06T08:00:12;1.13;;;1.13;;
5929;SDS011;2990;48.746;9.236;2024-03-06T08:02:44;3.58;;;1.17;;
5929;SDS011;2990;48.746;9.236;2024-03-06T08:05:15;1.73;;;1.73;;
5929;SDS011;2990;48.746;9.236;2024-03-06T08:07:41;1.70;;;1.60;;
5929;SDS011;2990;48.746;9.236;2024-03-06T08:10:10;2.90;;;1.70;;
5929;SDS011;2990;48.746;9.236;2024-03-06T08:12:43;1.70;;;1.60;;
5929;SDS011;2990;48.746;9.236;2024-03-06T08:15:12;2.33;;;2.10;;
5929;SDS011;2990;48.746;9.236;2024-03-06T08:17:40;1.42;;;1.27;;
5929;SDS011;2990;48.746;9.236;2024-03-06T08:20:07;2.35;;;2.15;;
5929;SDS011;2990;48.746;9.236;2024-03-06T08:22:38;1.50;;;1.40;;
5929;SDS011;2990;48.746;9.236;2024-03-06T08:25:08;1.70;;;1.70;;
5929;SDS011;2990;48.746;9.236;2024-03-06T08:27:36;1.98;;;1.85;;
5929;SDS011;2990;48.746;9.236;2024-03-06T08:30:03;1.50;;;1.50;;
5929;SDS011;2990;48.746;9.236;2024-03-06T08:32:32;2.00;;;1.90;;
5929;SDS011;2990;48.746;9.236;2024-03-06T08:35:00;1.67;;;1.58;;
5929;SDS011;2990;48.746;9.236;2024-03-06T08:37:41;1.70;;;1.70;;
5929;SDS011;2990;48.746;9.236;2024-03-06T08:40:07;2.25;;;2.15;;
5929;SDS011;2990;48.746;9.236;2024-03-06T08:42:39;2.50;;;1.83;;
5929;SDS011;2990;48.746;9.236;2024-03-06T08:45:08;1.73;;;1.70;;
5929;SDS011;2990;48.746;9.236;2024-03-06T08:47:34;1.15;;;1.15;;
5929;SDS011;2990;48.746;9.236;2024-03-06T08:50:00;1.77;;;1.70;;
5929;SDS011;2990;48.746;9.236;2024-03-06T08:52:27;1.75;;;1.73;;
5929;SDS011;2990;48.746;9.236;2024-03-06T08:54:52;1.65;;;1.63;;
5929;SDS011;2990;48.746;9.236;2024-03-06T08:57:18;1.77;;;1.77;;
5929;SDS011;2990;48.746;9.236;2024-03-06T08:59:46;1.65;;;1.65;;
5929;SDS011;2990;48.746;9.236;2024-03-06T09:02:18;1.88;;;1.77;;
5929;SDS011;2990;48.746;9.236;2024-03-06T09:04:44;1.52;;;1.42;;
5929;SDS011;2990;48.746;9.236;2024-03-06T09:07:10;1.90;;;1.80;;
5929;SDS011;2990;48.746;9.236;2024-03-06T09:09:36;1.55;;;1.55;;
5929;SDS011;2990;48.746;9.236;2024-03-06T09:12:04;2.00;;;1.90;;
5929;SDS011;2990;48.746;9.236;2024-03-06T09:14:37;1.55;;;1.52;;
5929;SDS011;2990;48.746;9.236;2024-03-06T09:17:04;1.90;;;1.85;;
5929;SDS011;2990;48.746;9.236;2024-03-06T09:19:30;3.80;;;1.98;;
5929;SDS011;2990;48.746;9.236;2024-03-06T09:21:57;2.60;;;1.73;;
5929;SDS011;2990;48.746;9.236;2024-03-06T09:24:23;1.98;;;1.88;;
5929;SDS011;2990;48.746;9.236;2024-03-06T09:26:50;1.83;;;1.83;;
5929;SDS011;2990;48.746;9.236;2024-03-06T09:29:16;1.05;;;1.05;;
5929;SDS011;2990;48.746;9.236;2024-03-06T09:31:42;5.75;;;2.92;;
5929;SDS011;2990;48.746;9.236;2024-03-06T09:34:08;2.40;;;2.28;;
5929;SDS011;2990;48.746;9.236;2024-03-06T09:36:37;2.20;;;2.10;;
5929;SDS011;2990;48.746;9.236;2024-03-06T09:39:03;2.17;;;2.08;;
5929;SDS011;2990;48.746;9.236;2024-03-06T09:41:29;1.95;;;1.85;;
5929;SDS011;2990;48.746;9.236;2024-03-06T09:43:55;2.35;;;2.22;;
5929;SDS011;2990;48.746;9.236;2024-03-06T09:46:21;1.90;;;1.80;;
5929;SDS011;2990;48.746;9.236;2024-03-06T09:48:47;1.55;;;1.55;;
5929;SDS011;2990;48.746;9.236;2024-03-06T09:51:14;1.92;;;1.90;;
5929;SDS011;2990;48.746;9.236;2024-03-06T09:53:41;2.40;;;2.20;;
5929;SDS011;2990;48.746;9.236;2024-03-06T09:56:08;2.50;;;2.30;;
5929;SDS011;2990;48.746;9.236;2024-03-06T09:58:37;4.38;;;2.00;;
5929;SDS011;2990;48.746;9.236;2024-03-06T10:01:03;2.58;;;2.47;;
5929;SDS011;2990;48.746;9.236;2024-03-06T10:03:32;2.10;;;2.00;;
5929;SDS011;2990;48.746;9.236;2024-03-06T10:05:58;1.80;;;1.70;;
5929;SDS011;2990;48.746;9.236;2024-03-06T10:08:24;3.50;;;2.15;;
5929;SDS011;2990;48.746;9.236;2024-03-06T10:10:51;2.00;;;1.90;;
5929;SDS011;2990;48.746;9.236;2024-03-06T10:13:17;2.42;;;2.33;;
5929;SDS011;2990;48.746;9.236;2024-03-06T10:18:28;2.75;;;2.35;;
5929;SDS011;2990;48.746;9.236;2024-03-06T10:20:54;3.53;;;3.22;;
5929;SDS011;2990;48.746;9.236;2024-03-06T10:23:20;2.80;;;2.67;;
5929;SDS011;2990;48.746;9.236;2024-03-06T10:25:46;2.28;;;2.17;;
5929;SDS011;2990;48.746;9.236;2024-03-06T10:28:16;2.90;;;2.80;;
5929;SDS011;2990;48.746;9.236;2024-03-06T10:30:42;2.90;;;2.70;;
5929;SDS011;2990;48.746;9.236;2024-03-06T10:33:09;3.78;;;2.70;;
5929;SDS011;2990;48.746;9.236;2024-03-06T10:35:35;3.42;;;3.22;;
5929;SDS011;2990;48.746;9.236;2024-03-06T10:38:05;2.78;;;2.65;;
5929;SDS011;2990;48.746;9.236;2024-03-06T10:40:32;2.80;;;2.60;;
5929;SDS011;2990;48.746;9.236;2024-03-06T10:43:02;4.10;;;2.67;;
5929;SDS011;2990;48.746;9.236;2024-03-06T10:45:53;3.80;;;3.50;;
5929;SDS011;2990;48.746;9.236;2024-03-06T10:48:21;3.53;;;3.33;;
5929;SDS011;2990;48.746;9.236;2024-03-06T10:50:48;3.30;;;3.10;;
5929;SDS011;2990;48.746;9.236;2024-03-06T10:53:15;2.92;;;2.72;;
5929;SDS011;2990;48.746;9.236;2024-03-06T10:55:44;3.75;;;3.45;;
5929;SDS011;2990;48.746;9.236;2024-03-06T10:58:10;3.65;;;3.30;;
5929;SDS011;2990;48.746;9.236;2024-03-06T11:00:37;2.25;;;2.15;;
5929;SDS011;2990;48.746;9.236;2024-03-06T11:03:08;3.60;;;3.38;;
5929;SDS011;2990;48.746;9.236;2024-03-06T11:05:40;4.97;;;4.05;;
5929;SDS011;2990;48.746;9.236;2024-03-06T11:08:10;3.70;;;3.42;;
5929;SDS011;2990;48.746;9.236;2024-03-06T11:10:38;4.63;;;4.20;;
5929;SDS011;2990;48.746;9.236;2024-03-06T11:15:46;5.68;;;3.75;;
5929;SDS011;2990;48.746;9.236;2024-03-06T11:18:58;8.05;;;4.07;;
5929;SDS011;2990;48.746;9.236;2024-03-06T11:21:44;4.47;;;3.88;;
5929;SDS011;2990;48.746;9.236;2024-03-06T11:26:47;3.22;;;3.03;;
5929;SDS011;2990;48.746;9.236;2024-03-06T11:29:17;4.18;;;3.78;;
5929;SDS011;2990;48.746;9.236;2024-03-06T11:32:00;3.90;;;3.55;;
5929;SDS011;2990;48.746;9.236;2024-03-06T11:34:37;6.75;;;4.43;;
5929;SDS011;2990;48.746;9.236;2024-03-06T11:37:03;12.63;;;8.73;;
5929;SDS011;2990;48.746;9.236;2024-03-06T11:39:34;6.75;;;5.13;;
5929;SDS011;2990;48.746;9.236;2024-03-06T11:42:02;4.93;;;4.60;;
5929;SDS011;2990;48.746;9.236;2024-03-06T11:44:31;5.28;;;4.75;;
5929;SDS011;2990;48.746;9.236;2024-03-06T11:47:04;6.40;;;4.68;;
5929;SDS011;2990;48.746;9.236;2024-03-06T11:49:33;6.80;;;4.85;;
5929;SDS011;2990;48.746;9.236;2024-03-06T11:52:03;6.80;;;5.55;;
5929;SDS011;2990;48.746;9.236;2024-03-06T11:54:30;4.13;;;3.92;;
5929;SDS011;2990;48.746;9.236;2024-03-06T11:56:58;6.72;;;4.55;;
5929;SDS011;2990;48.746;9.236;2024-03-06T11:59:32;5.13;;;4.20;;
5929;SDS011;2990;48.746;9.236;2024-03-06T12:02:00;4.95;;;4.57;;
5929;SDS011;2990;48.746;9.236;2024-03-06T12:04:27;7.30;;;4.65;;
5929;SDS011;2990;48.746;9.236;2024-03-06T12:06:55;4.32;;;3.92;;
5929;SDS011;2990;48.746;9.236;2024-03-06T12:09:28;5.60;;;4.47;;
5929;SDS011;2990;48.746;9.236;2024-03-06T12:11:55;4.25;;;3.70;;
5929;SDS011;2990;48.746;9.236;2024-03-06T12:14:22;6.28;;;4.50;;
5929;SDS011;2990;48.746;9.236;2024-03-06T12:16:58;5.55;;;4.70;;
5929;SDS011;2990;48.746;9.236;2024-03-06T12:19:32;6.85;;;4.65;;
5929;SDS011;2990;48.746;9.236;2024-03-06T12:22:00;4.80;;;4.35;;
5929;SDS011;2990;48.746;9.236;2024-03-06T12:24:26;6.47;;;4.20;;
5929;SDS011;2990;48.746;9.236;2024-03-06T12:26:59;6.13;;;4.68;;
5929;SDS011;2990;48.746;9.236;2024-03-06T12:29:27;4.75;;;4.40;;
5929;SDS011;2990;48.746;9.236;2024-03-06T12:31:53;10.65;;;5.38;;
5929;SDS011;2990;48.746;9.236;2024-03-06T12:34:19;8.63;;;5.03;;
5929;SDS011;2990;48.746;9.236;2024-03-06T12:36:44;4.50;;;4.10;;
5929;SDS011;2990;48.746;9.236;2024-03-06T12:39:10;6.00;;;4.15;;
5929;SDS011;2990;48.746;9.236;2024-03-06T12:41:43;4.95;;;4.32;;
5929;SDS011;2990;48.746;9.236;2024-03-06T12:44:09;4.70;;;3.95;;
5929;SDS011;2990;48.746;9.236;2024-03-06T12:46:34;5.28;;;4.57;;
5929;SDS011;2990;48.746;9.236;2024-03-06T12:49:00;5.10;;;4.53;;
5929;SDS011;2990;48.746;9.236;2024-03-06T12:51:25;5.93;;;4.65;;
5929;SDS011;2990;48.746;9.236;2024-03-06T12:53:51;4.85;;;4.38;;
5929;SDS011;2990;48.746;9.236;2024-03-06T12:56:17;9.90;;;4.65;;
5929;SDS011;2990;48.746;9.236;2024-03-06T12:58:44;9.80;;;5.65;;
5929;SDS011;2990;48.746;9.236;2024-03-06T13:01:09;6.72;;;4.43;;
5929;SDS011;2990;48.746;9.236;2024-03-06T13:03:35;7.97;;;5.13;;
5929;SDS011;2990;48.746;9.236;2024-03-06T13:06:01;5.80;;;4.60;;
5929;SDS011;2990;48.746;9.236;2024-03-06T13:08:27;9.80;;;4.72;;
5929;SDS011;2990;48.746;9.236;2024-03-06T13:10:53;5.80;;;4.63;;
5929;SDS011;2990;48.746;9.236;2024-03-06T13:13:18;8.13;;;5.55;;
5929;SDS011;2990;48.746;9.236;2024-03-06T13:15:45;5.85;;;4.97;;
5929;SDS011;2990;48.746;9.236;2024-03-06T13:18:13;5.68;;;5.07;;
5929;SDS011;2990;48.746;9.236;2024-03-06T13:20:38;5.93;;;4.72;;
5929;SDS011;2990;48.746;9.236;2024-03-06T13:23:04;5.80;;;4.70;;
5929;SDS011;2990;48.746;9.236;2024-03-06T13:25:30;8.95;;;5.55;;
5929;SDS011;2990;48.746;9.236;2024-03-06T13:27:56;5.90;;;5.32;;
5929;SDS011;2990;48.746;9.236;2024-03-06T13:30:22;6.13;;;3.92;;
5929;SDS011;2990;48.746;9.236;2024-03-06T13:32:49;12.30;;;5.20;;
5929;SDS011;2990;48.746;9.236;2024-03-06T13:35:15;5.07;;;4.68;;
5929;SDS011;2990;48.746;9.236;2024-03-06T13:37:42;7.05;;;5.03;;
5929;SDS011;2990;48.746;9.236;2024-03-06T13:40:09;7.53;;;4.85;;
5929;SDS011;2990;48.746;9.236;2024-03-06T13:42:37;5.32;;;4.30;;
5929;SDS011;2990;48.746;9.236;2024-03-06T13:45:04;9.82;;;5.32;;
5929;SDS011;2990;48.746;9.236;2024-03-06T13:47:30;4.90;;;3.95;;
5929;SDS011;2990;48.746;9.236;2024-03-06T13:49:56;5.88;;;4.55;;
5929;SDS011;2990;48.746;9.236;2024-03-06T13:52:21;6.22;;;4.80;;
5929;SDS011;2990;48.746;9.236;2024-03-06T13:54:48;6.80;;;4.65;;
5929;SDS011;2990;48.746;9.236;2024-03-06T13:57:14;5.38;;;4.10;;
5929;SDS011;2990;48.746;9.236;2024-03-06T13:59:41;6.85;;;5.10;;
5929;SDS011;2990;48.746;9.236;2024-03-06T14:02:07;5.53;;;4.50;;
5929;SDS011;2990;48.746;9.236;2024-03-06T14:04:33;5.95;;;4.10;;
5929;SDS011;2990;48.746;9.236;2024-03-06T14:06:59;7.38;;;5.20;;
5929;SDS011;2990;48.746;9.236;2024-03-06T14:09:24;6.07;;;4.13;;
5929;SDS011;2990;48.746;9.236;2024-03-06T14:11:51;5.63;;;4.45;;
5929;SDS011;2990;48.746;9.236;2024-03-06T14:14:17;6.00;;;4.45;;
5929;SDS011;2990;48.746;9.236;2024-03-06T14:16:44;5.72;;;4.28;;
5929;SDS011;2990;48.746;9.236;2024-03-06T14:19:09;6.97;;;4.57;;
5929;SDS011;2990;48.746;9.236;2024-03-06T14:21:36;5.18;;;4.68;;
5929;SDS011;2990;48.746;9.236;2024-03-06T14:24:02;7.00;;;4.75;;
5929;SDS011;2990;48.746;9.236;2024-03-06T14:26:29;7.47;;;5.00;;
5929;SDS011;2990;48.746;9.236;2024-03-06T14:28:55;5.32;;;4.53;;
5929;SDS011;2990;48.746;9.236;2024-03-06T14:31:20;6.65;;;4.95;;
5929;SDS011;2990;48.746;9.236;2024-03-06T14:33:46;5.55;;;4.30;;
5929;SDS011;2990;48.746;9.236;2024-03-06T14:36:12;9.27;;;5.07;;
5929;SDS011;2990;48.746;9.236;2024-03-06T14:38:38;4.38;;;4.05;;
5929;SDS011;2990;48.746;9.236;2024-03-06T14:41:03;4.55;;;4.15;;
5929;SDS011;2990;48.746;9.236;2024-03-06T14:43:34;8.70;;;4.63;;
5929;SDS011;2990;48.746;9.236;2024-03-06T14:46:03;4.80;;;4.32;;
5929;SDS011;2990;48.746;9.236;2024-03-06T14:48:29;8.48;;;4.20;;
5929;SDS011;2990;48.746;9.236;2024-03-06T14:50:55;5.32;;;4.82;;
5929;SDS011;2990;48.746;9.236;2024-03-06T14:53:20;5.25;;;4.68;;
5929;SDS011;2990;48.746;9.236;2024-03-06T14:55:46;6.05;;;4.90;;
5929;SDS011;2990;48.746;9.236;2024-03-06T14:58:12;4.90;;;3.90;;
5929;SDS011;2990;48.746;9.236;2024-03-06T15:00:38;3.72;;;3.42;;
5929;SDS011;2990;48.746;9.236;2024-03-06T15:03:04;4.00;;;3.50;;
5929;SDS011;2990;48.746;9.236;2024-03-06T15:05:29;4.50;;;4.07;;
5929;SDS011;2990;48.746;9.236;2024-03-06T15:07:56;6.00;;;4.25;;
5929;SDS011;2990;48.746;9.236;2024-03-06T15:10:23;5.47;;;4.20;;
5929;SDS011;2990;48.746;9.236;2024-03-06T15:12:49;4.40;;;4.00;;
5929;SDS011;2990;48.746;9.236;2024-03-06T15:15:14;5.10;;;4.20;;
5929;SDS011;2990;48.746;9.236;2024-03-06T15:17:40;3.90;;;3.55;;
5929;SDS011;2990;48.746;9.236;2024-03-06T15:20:06;6.72;;;4.18;;
5929;SDS011;2990;48.746;9.236;2024-03-06T15:22:36;6.28;;;4.22;;